createdAt,value
2022-11-26T00:00:38.754Z,11.13
2022-11-26T00:05:46.645Z,10.77
2022-11-26T00:10:52.995Z,9.60
2022-11-26T00:15:55.651Z,10.10
2022-11-26T00:21:00.899Z,10.48
2022-11-26T00:26:04.097Z,10.63
2022-11-26T00:31:14.200Z,10.55
2022-11-26T00:36:25.191Z,10.32
2022-11-26T00:41:32.852Z,9.90
2022-11-26T00:46:34.485Z,10.15
2022-11-26T00:51:36.316Z,10.88
2022-11-26T00:56:39.247Z,9.90
2022-11-26T01:01:41.136Z,11.57
2022-11-26T01:06:44.678Z,10.25
2022-11-26T01:11:49.873Z,10.90
2022-11-26T01:16:56.508Z,11.05
2022-11-26T01:21:58.175Z,9.70
2022-11-26T01:26:59.821Z,10.35
2022-11-26T01:32:01.536Z,10.68
2022-11-26T01:37:03.289Z,11.15
2022-11-26T01:42:16.588Z,9.63
2022-11-26T01:47:24.532Z,9.93
2022-11-26T01:52:26.889Z,9.32
2022-11-26T01:57:30.451Z,10.57
2022-11-26T02:02:32.149Z,9.63
2022-11-26T02:07:35.325Z,9.82
2022-11-26T02:12:38.027Z,9.82
2022-11-26T02:17:48.612Z,9.63
2022-11-26T02:22:50.181Z,10.32
2022-11-26T02:28:06.144Z,10.38
2022-11-26T02:33:19.389Z,9.38
2022-11-26T02:38:24.735Z,9.57
2022-11-26T02:43:27.497Z,9.90
2022-11-26T02:48:34.054Z,8.63
2022-11-26T02:53:37.080Z,10.73
2022-11-26T02:58:38.993Z,9.85
2022-11-26T03:03:46.523Z,9.90
2022-11-26T03:08:48.790Z,9.10
2022-11-26T03:13:50.463Z,9.73
2022-11-26T03:18:52.088Z,10.48
2022-11-26T03:23:53.821Z,10.32
2022-11-26T03:28:55.504Z,9.95
2022-11-26T03:33:57.151Z,10.30
2022-11-26T03:38:58.805Z,10.23
2022-11-26T03:44:00.518Z,12.63
2022-11-26T03:49:02.155Z,10.60
2022-11-26T03:54:03.914Z,11.30
2022-11-26T03:59:05.547Z,10.75
2022-11-26T04:04:07.401Z,11.68
2022-11-26T04:09:08.999Z,11.88
2022-11-26T04:14:10.751Z,11.60
2022-11-26T04:19:12.490Z,11.02
2022-11-26T04:24:14.166Z,11.65
2022-11-26T04:29:15.875Z,11.88
2022-11-26T04:34:17.495Z,10.93
2022-11-26T04:39:19.171Z,11.27
2022-11-26T04:44:20.828Z,10.85
2022-11-26T04:49:22.546Z,11.85
2022-11-26T04:54:24.206Z,11.75
2022-11-26T04:59:26.002Z,10.32
2022-11-26T05:04:28.837Z,11.15
2022-11-26T05:09:31.537Z,11.38
2022-11-26T05:14:33.280Z,11.32
2022-11-26T05:19:34.929Z,11.35
2022-11-26T05:24:38.073Z,11.02
2022-11-26T05:29:40.021Z,11.20
2022-11-26T05:34:41.748Z,11.05
2022-11-26T05:39:43.466Z,11.75
2022-11-26T05:44:45.136Z,10.55
2022-11-26T05:49:46.764Z,11.65
2022-11-26T05:54:48.539Z,11.80
2022-11-26T05:59:50.151Z,11.88
2022-11-26T06:04:51.823Z,10.90
2022-11-26T06:09:53.606Z,10.88
2022-11-26T06:14:55.221Z,12.68
2022-11-26T06:19:56.934Z,12.18
2022-11-26T06:24:58.572Z,12.05
2022-11-26T06:30:00.179Z,11.60
2022-11-26T06:35:01.789Z,12.07
2022-11-26T06:40:03.771Z,12.63
2022-11-26T06:45:05.861Z,12.35
2022-11-26T06:50:10.826Z,11.93
2022-11-26T06:55:12.717Z,12.40
2022-11-26T07:00:14.613Z,10.68
2022-11-26T07:05:16.257Z,11.02
2022-11-26T07:10:18.234Z,11.82
2022-11-26T07:15:19.892Z,10.88
2022-11-26T07:20:21.851Z,10.98
2022-11-26T07:25:23.450Z,11.02
2022-11-26T07:30:25.172Z,10.80
2022-11-26T07:35:26.836Z,11.55
2022-11-26T07:40:29.488Z,12.85
2022-11-26T07:45:31.140Z,11.60
2022-11-26T07:50:32.862Z,10.85
2022-11-26T07:55:34.480Z,12.93
2022-11-26T08:00:36.290Z,12.18
2022-11-26T08:05:42.508Z,12.07
2022-11-26T08:10:44.166Z,10.68
2022-11-26T08:15:48.630Z,12.60
2022-11-26T08:20:59.626Z,10.98
2022-11-26T08:31:37.287Z,11.43
2022-11-26T08:36:41.907Z,12.32
2022-11-26T08:41:48.921Z,12.00
2022-11-26T08:46:53.974Z,12.05
2022-11-26T08:51:56.755Z,11.60
2022-11-26T08:56:58.449Z,10.30
2022-11-26T09:02:00.412Z,10.90
2022-11-26T09:07:03.167Z,12.43
2022-11-26T09:12:06.287Z,13.40
2022-11-26T09:17:09.857Z,14.45
2022-11-26T09:22:11.642Z,14.70
2022-11-26T09:27:13.375Z,13.68
2022-11-26T09:32:24.480Z,13.00
2022-11-26T09:37:30.568Z,12.37
2022-11-26T09:42:49.998Z,11.20
2022-11-26T09:47:53.631Z,10.88
2022-11-26T09:53:19.885Z,10.70
2022-11-26T09:58:57.621Z,12.38
2022-11-26T10:04:00.189Z,11.10
2022-11-26T10:09:10.763Z,11.27
2022-11-26T10:14:40.691Z,12.27
2022-11-26T10:20:00.936Z,10.95
2022-11-26T10:25:04.215Z,10.02
2022-11-26T10:30:26.979Z,9.23
2022-11-26T10:35:30.001Z,8.98
2022-11-26T10:40:32.939Z,7.75
2022-11-26T10:45:37.703Z,7.30
2022-11-26T10:50:47.537Z,7.85
2022-11-26T10:55:51.864Z,7.80
2022-11-26T11:01:02.135Z,7.75
2022-11-26T11:06:25.799Z,6.88
2022-11-26T11:11:30.621Z,7.05
2022-11-26T11:16:46.222Z,5.78
2022-11-26T11:21:48.815Z,5.82
2022-11-26T11:26:53.474Z,5.30
2022-11-26T11:31:57.504Z,5.75
2022-11-26T11:36:59.332Z,5.78
2022-11-26T11:42:04.638Z,5.50
2022-11-26T11:47:17.533Z,5.03
2022-11-26T11:52:55.947Z,4.97
2022-11-26T11:58:40.078Z,5.47
2022-11-26T12:04:00.616Z,5.23
2022-11-26T12:09:31.970Z,4.75
2022-11-26T12:14:43.011Z,9.18
2022-11-26T12:19:57.764Z,5.10
2022-11-26T12:25:08.633Z,4.30
2022-11-26T12:30:20.446Z,4.85
2022-11-26T12:35:31.028Z,5.25
2022-11-26T12:40:58.049Z,4.38
2022-11-26T12:46:09.368Z,4.18
2022-11-26T12:51:31.577Z,4.22
2022-11-26T12:56:52.782Z,3.63
2022-11-26T13:01:54.569Z,4.15
2022-11-26T13:07:26.615Z,4.65
2022-11-26T13:12:51.658Z,4.25
2022-11-26T13:17:54.486Z,4.50
2022-11-26T13:23:21.087Z,4.22
2022-11-26T13:28:47.426Z,5.53
2022-11-26T13:34:07.189Z,4.80
2022-11-26T13:39:23.136Z,4.55
2022-11-26T13:45:01.710Z,5.13
2022-11-26T13:50:30.124Z,5.00
2022-11-26T13:55:51.993Z,4.65
2022-11-26T14:00:53.721Z,4.18
2022-11-26T14:05:57.337Z,4.57
2022-11-26T14:10:59.084Z,4.37
2022-11-26T14:16:06.082Z,3.95
2022-11-26T14:21:07.753Z,4.68
2022-11-26T14:26:29.946Z,4.60
2022-11-26T14:31:31.687Z,3.90
2022-11-26T14:36:33.397Z,3.80
2022-11-26T14:41:36.161Z,4.65
2022-11-26T14:46:38.814Z,4.50
2022-11-26T14:51:44.682Z,4.28
2022-11-26T14:56:46.965Z,4.28
2022-11-26T15:01:48.695Z,4.00
2022-11-26T15:06:50.570Z,3.95
2022-11-26T15:12:11.843Z,4.25
2022-11-26T15:17:18.616Z,3.40
2022-11-26T15:22:32.783Z,3.85
2022-11-26T15:27:39.192Z,4.07
2022-11-26T15:32:40.842Z,4.40
2022-11-26T15:37:42.699Z,8.98
2022-11-26T15:42:47.168Z,4.45
2022-11-26T15:47:51.882Z,3.47
2022-11-26T15:53:18.373Z,3.70
2022-11-26T15:58:26.493Z,3.53
2022-11-26T16:03:36.222Z,3.83
2022-11-26T16:08:39.229Z,3.90
2022-11-26T16:13:40.977Z,3.97
2022-11-26T16:18:59.212Z,3.88
2022-11-26T16:24:05.592Z,3.97
2022-11-26T16:29:10.119Z,4.30
2022-11-26T16:34:11.785Z,4.47
2022-11-26T16:39:14.909Z,4.38
2022-11-26T16:44:16.545Z,4.72
2022-11-26T16:49:18.401Z,4.65
2022-11-26T16:54:20.075Z,5.43
2022-11-26T16:59:28.004Z,5.63
2022-11-26T17:04:29.825Z,5.85
2022-11-26T17:09:31.594Z,5.82
2022-11-26T17:14:33.482Z,5.40
2022-11-26T17:19:35.212Z,6.00
2022-11-26T17:24:37.705Z,6.00
2022-11-26T17:29:42.834Z,5.38
2022-11-26T17:34:45.770Z,6.70
2022-11-26T17:39:47.466Z,6.50
2022-11-26T17:44:49.836Z,6.32
2022-11-26T17:49:52.614Z,6.72
2022-11-26T17:54:54.259Z,7.75
2022-11-26T17:59:56.570Z,7.30
2022-11-26T18:04:58.274Z,8.15
2022-11-26T18:10:00.100Z,7.15
2022-11-26T18:15:02.068Z,8.63
2022-11-26T18:20:04.161Z,8.35
2022-11-26T18:25:06.030Z,7.63
2022-11-26T18:30:09.205Z,8.05
2022-11-26T18:35:11.349Z,8.32
2022-11-26T18:40:17.030Z,8.38
2022-11-26T18:45:18.756Z,8.80
2022-11-26T18:50:20.526Z,8.95
2022-11-26T18:55:22.270Z,9.00
2022-11-26T19:00:23.969Z,8.63
2022-11-26T19:05:25.692Z,7.50
2022-11-26T19:10:27.365Z,8.25
2022-11-26T19:15:29.369Z,8.02
2022-11-26T19:20:31.138Z,8.60
2022-11-26T19:25:33.147Z,8.55
2022-11-26T19:30:34.932Z,7.57
2022-11-26T19:35:40.262Z,7.80
2022-11-26T19:40:41.982Z,9.00
2022-11-26T19:45:43.751Z,9.18
2022-11-26T19:50:54.367Z,9.05
2022-11-26T19:56:03.244Z,8.70
2022-11-26T20:01:10.352Z,10.55
2022-11-26T20:06:21.416Z,9.50
2022-11-26T20:11:23.174Z,10.40
2022-11-26T20:16:28.036Z,10.13
2022-11-26T20:21:34.639Z,10.77
2022-11-26T20:26:39.222Z,10.40
2022-11-26T20:31:45.756Z,10.55
2022-11-26T20:36:48.286Z,10.35
2022-11-26T20:41:50.255Z,10.38
2022-11-26T20:46:52.083Z,9.82
2022-11-26T20:51:53.760Z,9.43
2022-11-26T20:56:55.464Z,9.20
2022-11-26T21:01:57.207Z,9.63
2022-11-26T21:06:58.851Z,10.27
2022-11-26T21:12:00.607Z,10.07
2022-11-26T21:17:02.459Z,9.32
2022-11-26T21:22:04.303Z,9.93
2022-11-26T21:27:05.962Z,8.95
2022-11-26T21:32:07.750Z,8.32
2022-11-26T21:37:09.429Z,9.38
2022-11-26T21:42:11.592Z,9.25
2022-11-26T21:47:16.445Z,9.27
2022-11-26T21:52:18.163Z,7.75
2022-11-26T21:57:19.874Z,8.48
2022-11-26T22:02:21.557Z,8.60
2022-11-26T22:07:23.414Z,9.57
2022-11-26T22:12:25.285Z,8.80
2022-11-26T22:17:26.923Z,9.57
2022-11-26T22:22:28.552Z,9.45
2022-11-26T22:27:30.301Z,8.15
2022-11-26T22:32:32.069Z,6.93
2022-11-26T22:37:33.790Z,6.70
2022-11-26T22:42:35.829Z,5.68
2022-11-26T22:47:37.691Z,5.57
2022-11-26T22:52:40.885Z,5.35
2022-11-26T22:57:42.691Z,6.05
2022-11-26T23:02:44.564Z,5.65
2022-11-26T23:07:47.566Z,5.95
2022-11-26T23:12:49.280Z,5.72
2022-11-26T23:17:50.938Z,5.00
2022-11-26T23:22:53.336Z,4.88
2022-11-26T23:27:55.247Z,4.40
2022-11-26T23:32:56.959Z,5.25
2022-11-26T23:37:58.721Z,5.07
2022-11-26T23:43:03.459Z,5.03
2022-11-26T23:48:09.098Z,4.88
2022-11-26T23:53:10.770Z,3.97
2022-11-26T23:58:12.504Z,3.92
